createdAt,value
2019-05-17T00:02:19.206Z,8.90
2019-05-17T00:04:46.960Z,9.00
2019-05-17T00:07:13.377Z,8.90
2019-05-17T00:09:39.478Z,8.90
2019-05-17T00:12:07.681Z,8.90
2019-05-17T00:14:33.856Z,8.90
2019-05-17T00:17:00.046Z,8.90
2019-05-17T00:19:26.558Z,8.90
2019-05-17T00:21:52.698Z,8.90
2019-05-17T00:24:18.958Z,8.90
2019-05-17T00:26:46.721Z,8.90
2019-05-17T00:29:12.988Z,8.90
2019-05-17T00:31:39.094Z,8.90
2019-05-17T00:34:07.136Z,8.80
2019-05-17T00:36:33.414Z,8.80
2019-05-17T00:38:59.634Z,8.70
2019-05-17T00:41:26.967Z,8.70
2019-05-17T00:43:53.348Z,8.70
2019-05-17T00:46:19.414Z,8.70
2019-05-17T00:48:46.588Z,8.70
2019-05-17T00:51:12.890Z,8.70
2019-05-17T00:53:38.997Z,8.70
2019-05-17T00:56:06.654Z,8.80
2019-05-17T00:58:32.955Z,8.80
2019-05-17T01:00:59.095Z,8.80
2019-05-17T01:03:26.916Z,8.70
2019-05-17T01:05:53.242Z,8.60
2019-05-17T01:08:19.542Z,8.50
2019-05-17T01:10:47.386Z,8.50
2019-05-17T01:13:13.640Z,8.50
2019-05-17T01:15:39.722Z,8.50
2019-05-17T01:18:07.183Z,8.50
2019-05-17T01:20:33.653Z,8.60
2019-05-17T01:22:59.762Z,8.70
2019-05-17T01:25:27.266Z,8.70
2019-05-17T01:27:53.665Z,8.70
2019-05-17T01:30:19.880Z,8.60
2019-05-17T01:32:46.471Z,8.60
2019-05-17T01:35:12.865Z,8.50
2019-05-17T01:37:39.080Z,8.50
2019-05-17T01:40:06.829Z,8.40
2019-05-17T01:42:33.252Z,8.50
2019-05-17T01:44:59.346Z,8.50
2019-05-17T01:47:27.225Z,8.50
2019-05-17T01:49:53.514Z,8.50
2019-05-17T01:52:19.568Z,8.50
2019-05-17T01:54:46.943Z,8.50
2019-05-17T01:57:13.293Z,8.40
2019-05-17T01:59:39.507Z,8.40
2019-05-17T02:02:07.620Z,8.40
2019-05-17T02:04:33.784Z,8.40
2019-05-17T02:06:59.934Z,8.40
2019-05-17T02:09:37.056Z,8.40
2019-05-17T02:11:54.053Z,8.30
2019-05-17T02:14:20.134Z,8.30
2019-05-17T02:16:46.762Z,8.30
2019-05-17T02:19:13.155Z,8.40
2019-05-17T02:21:39.374Z,8.40
2019-05-17T02:24:07.875Z,8.40
2019-05-17T02:26:33.470Z,8.40
2019-05-17T02:29:01.334Z,8.30
2019-05-17T02:31:28.149Z,8.30
2019-05-17T02:33:54.570Z,8.30
2019-05-17T02:36:22.873Z,8.20
2019-05-17T02:38:48.691Z,8.30
2019-05-17T02:41:14.980Z,8.20
2019-05-17T02:43:43.406Z,8.20
2019-05-17T02:46:09.116Z,8.20
2019-05-17T02:48:35.325Z,8.10
2019-05-17T02:51:03.549Z,8.10
2019-05-17T02:53:29.638Z,8.10
2019-05-17T02:55:55.732Z,8.10
2019-05-17T02:58:23.359Z,8.00
2019-05-17T03:00:52.935Z,8.00
2019-05-17T03:03:17.829Z,7.90
2019-05-17T03:05:43.973Z,7.90
2019-05-17T03:08:12.297Z,7.90
2019-05-17T03:10:38.131Z,7.90
2019-05-17T03:13:04.484Z,7.90
2019-05-17T03:15:32.447Z,7.90
2019-05-17T03:17:58.919Z,7.90
2019-05-17T03:20:25.266Z,8.00
2019-05-17T03:22:52.540Z,7.90
2019-05-17T03:25:19.057Z,8.00
2019-05-17T03:27:45.165Z,7.90
2019-05-17T03:30:16.946Z,7.80
2019-05-17T03:32:47.536Z,7.70
2019-05-17T03:35:15.609Z,7.70
2019-05-17T03:37:38.335Z,7.60
2019-05-17T03:40:23.478Z,7.70
2019-05-17T03:42:33.338Z,7.60
2019-05-17T03:45:02.590Z,7.70
2019-05-17T03:47:27.881Z,7.60
2019-05-17T03:49:54.022Z,7.60
2019-05-17T03:52:22.374Z,7.60
2019-05-17T03:54:48.200Z,7.60
2019-05-17T03:57:14.294Z,7.60
2019-05-17T03:59:43.009Z,7.60
2019-05-17T04:02:08.359Z,7.60
2019-05-17T04:04:34.507Z,7.50
2019-05-17T04:07:03.368Z,7.50
2019-05-17T04:09:28.741Z,7.60
2019-05-17T04:11:54.853Z,7.50
2019-05-17T04:14:22.492Z,7.60
2019-05-17T04:16:48.817Z,7.60
2019-05-17T04:19:14.942Z,7.60
2019-05-17T04:21:42.871Z,7.60
2019-05-17T04:24:12.408Z,7.70
2019-05-17T04:26:37.201Z,7.70
2019-05-17T04:29:03.712Z,7.80
2019-05-17T04:31:33.925Z,7.70
2019-05-17T04:33:58.110Z,7.70
2019-05-17T04:36:24.291Z,7.70
2019-05-17T04:38:52.569Z,7.70
2019-05-17T04:41:36.196Z,7.80
2019-05-17T04:43:46.429Z,7.80
2019-05-17T04:46:13.124Z,7.90
2019-05-17T04:48:39.422Z,7.90
2019-05-17T04:51:05.555Z,7.90
2019-05-17T04:53:32.791Z,7.90
2019-05-17T04:56:02.788Z,8.00
2019-05-17T04:58:27.496Z,8.00
2019-05-17T05:00:54.042Z,8.10
2019-05-17T05:03:23.296Z,8.10
2019-05-17T05:05:53.658Z,8.00
2019-05-17T05:08:22.460Z,8.00
2019-05-17T05:10:53.585Z,8.10
2019-05-17T05:13:22.778Z,8.20
2019-05-17T05:15:52.015Z,8.20
2019-05-17T05:18:22.113Z,8.30
2019-05-17T05:20:48.824Z,8.30
2019-05-17T05:23:23.565Z,8.40
2019-05-17T05:25:49.438Z,8.50
2019-05-17T05:28:16.471Z,8.60
2019-05-17T05:30:45.654Z,8.60
2019-05-17T05:33:18.966Z,8.70
2019-05-17T05:35:47.993Z,8.80
2019-05-17T05:38:16.818Z,8.90
2019-05-17T05:40:53.176Z,8.90
2019-05-17T05:43:22.639Z,8.90
2019-05-17T05:45:49.762Z,9.00
2019-05-17T05:48:21.738Z,9.10
2019-05-17T05:50:52.062Z,9.20
2019-05-17T05:53:21.639Z,9.30
2019-05-17T05:55:51.846Z,9.30
2019-05-17T05:58:19.174Z,9.40
2019-05-17T06:00:45.943Z,9.40
2019-05-17T06:03:16.134Z,9.60
2019-05-17T06:05:43.353Z,9.70
2019-05-17T06:08:12.597Z,9.80
2019-05-17T06:10:40.190Z,10.00
2019-05-17T06:13:07.359Z,10.40
2019-05-17T06:15:33.618Z,10.30
2019-05-17T06:18:02.728Z,10.20
2019-05-17T06:20:27.974Z,10.20
2019-05-17T06:22:54.050Z,10.30
2019-05-17T06:25:23.398Z,10.50
2019-05-17T06:27:48.198Z,10.60
2019-05-17T06:30:14.737Z,10.60
2019-05-17T06:32:43.222Z,10.60
2019-05-17T06:35:12.619Z,10.70
2019-05-17T06:37:39.162Z,10.70
2019-05-17T06:40:05.638Z,10.80
2019-05-17T06:42:40.992Z,10.70
2019-05-17T06:45:02.143Z,10.70
2019-05-17T06:47:27.792Z,10.70
2019-05-17T06:49:53.918Z,10.90
2019-05-17T06:52:22.506Z,10.90
2019-05-17T06:54:47.985Z,11.00
2019-05-17T06:57:14.136Z,11.20
2019-05-17T06:59:40.226Z,11.30
2019-05-17T07:02:06.565Z,11.20
2019-05-17T07:04:32.678Z,11.20
2019-05-17T07:07:17.666Z,11.10
2019-05-17T07:09:43.802Z,11.30
2019-05-17T07:12:10.503Z,11.20
2019-05-17T07:14:36.798Z,11.10
2019-05-17T07:17:03.038Z,11.10
2019-05-17T07:19:30.321Z,11.20
2019-05-17T07:21:56.556Z,11.40
2019-05-17T07:24:22.642Z,11.50
2019-05-17T07:26:49.828Z,11.50
2019-05-17T07:29:16.027Z,11.60
2019-05-17T07:31:42.110Z,11.90
2019-05-17T07:34:09.273Z,12.10
2019-05-17T07:36:35.510Z,12.30
2019-05-17T07:39:01.659Z,12.60
2019-05-17T07:41:29.738Z,12.80
2019-05-17T07:43:55.850Z,12.80
2019-05-17T07:46:21.918Z,12.90
2019-05-17T07:48:49.793Z,13.10
2019-05-17T07:51:15.977Z,13.20
2019-05-17T07:53:42.125Z,13.20
2019-05-17T07:56:10.313Z,13.20
2019-05-17T07:58:36.372Z,13.00
2019-05-17T08:01:02.512Z,12.90
2019-05-17T08:03:29.892Z,13.20
2019-05-17T08:05:56.212Z,13.80
2019-05-17T08:08:22.479Z,13.70
2019-05-17T08:10:50.995Z,14.10
2019-05-17T08:13:29.145Z,13.90
2019-05-17T08:15:44.649Z,13.40
2019-05-17T08:18:11.192Z,12.90
2019-05-17T08:20:39.832Z,12.90
2019-05-17T08:23:05.515Z,12.80
2019-05-17T08:25:31.678Z,13.00
2019-05-17T08:27:59.523Z,13.40
2019-05-17T08:30:26.000Z,13.80
2019-05-17T08:32:52.121Z,13.90
2019-05-17T08:35:19.782Z,13.60
2019-05-17T08:37:46.091Z,13.50
2019-05-17T08:40:15.161Z,13.60
2019-05-17T08:42:40.891Z,13.80
2019-05-17T08:45:09.665Z,14.20
2019-05-17T08:47:36.002Z,14.20
2019-05-17T08:50:04.891Z,13.90
2019-05-17T08:52:30.987Z,13.90
2019-05-17T08:54:57.095Z,13.90
2019-05-17T08:57:23.216Z,13.80
2019-05-17T08:59:49.833Z,13.90
2019-05-17T09:02:16.093Z,14.10
2019-05-17T09:04:42.203Z,14.20
2019-05-17T09:07:09.464Z,14.30
2019-05-17T09:09:35.879Z,14.40
2019-05-17T09:12:02.204Z,14.30
2019-05-17T09:14:29.448Z,14.40
2019-05-17T09:16:55.770Z,14.50
2019-05-17T09:19:21.963Z,14.50
2019-05-17T09:21:50.195Z,14.40
2019-05-17T09:24:16.393Z,14.60
2019-05-17T09:26:42.559Z,14.70
2019-05-17T09:29:10.758Z,15.00
2019-05-17T09:31:36.993Z,15.40
2019-05-17T09:34:03.160Z,15.50
2019-05-17T09:36:30.278Z,15.00
2019-05-17T09:38:56.747Z,14.70
2019-05-17T09:41:22.856Z,14.40
2019-05-17T09:43:49.712Z,14.40
2019-05-17T09:46:15.967Z,14.40
2019-05-17T09:48:42.201Z,14.50
2019-05-17T09:51:10.454Z,14.50
2019-05-17T09:53:36.510Z,14.50
2019-05-17T09:56:02.750Z,14.40
2019-05-17T09:58:29.943Z,14.20
2019-05-17T10:00:56.325Z,14.20
2019-05-17T10:03:23.767Z,14.30
2019-05-17T10:05:50.487Z,14.50
2019-05-17T10:08:16.810Z,14.50
2019-05-17T10:10:43.243Z,14.40
2019-05-17T10:13:09.925Z,14.40
2019-05-17T10:15:36.797Z,14.70
2019-05-17T10:18:02.923Z,14.80
2019-05-17T10:20:29.304Z,14.90
2019-05-17T10:22:55.567Z,15.00
2019-05-17T10:25:21.631Z,15.10
2019-05-17T10:27:49.674Z,15.10
2019-05-17T10:30:16.252Z,15.40
2019-05-17T10:32:42.369Z,15.60
2019-05-17T10:35:08.928Z,15.50
2019-05-17T10:37:35.153Z,15.70
2019-05-17T10:40:01.840Z,15.70
2019-05-17T10:42:30.516Z,15.90
2019-05-17T10:44:55.988Z,15.90
2019-05-17T10:47:22.394Z,16.00
2019-05-17T10:49:49.648Z,16.20
2019-05-17T10:52:15.999Z,16.10
2019-05-17T10:54:42.067Z,15.90
2019-05-17T10:57:10.272Z,15.80
2019-05-17T10:59:37.015Z,16.00
2019-05-17T11:02:03.503Z,16.10
2019-05-17T11:04:29.579Z,16.40
2019-05-17T11:06:55.728Z,16.80
2019-05-17T11:09:21.925Z,16.90
2019-05-17T11:11:48.005Z,16.70
2019-05-17T11:14:14.122Z,16.50
2019-05-17T11:16:40.238Z,16.60
2019-05-17T11:19:08.778Z,16.50
2019-05-17T11:21:34.618Z,16.70
2019-05-17T11:24:00.961Z,17.30
2019-05-17T11:26:27.804Z,17.50
2019-05-17T11:28:54.010Z,17.40
2019-05-17T11:31:20.088Z,17.40
2019-05-17T11:33:46.241Z,17.40
2019-05-17T11:36:12.455Z,17.60
2019-05-17T11:38:38.526Z,17.80
2019-05-17T11:41:21.105Z,18.00
2019-05-17T11:43:47.088Z,17.70
2019-05-17T11:46:16.640Z,18.00
2019-05-17T11:48:45.580Z,18.10
2019-05-17T11:51:15.266Z,18.20
2019-05-17T11:53:42.548Z,18.40
2019-05-17T11:56:14.833Z,18.70
2019-05-17T11:58:41.659Z,18.70
2019-05-17T12:01:10.570Z,18.50
2019-05-17T12:03:40.499Z,18.50
2019-05-17T12:06:09.329Z,18.40
2019-05-17T12:08:37.247Z,18.20
2019-05-17T12:11:05.839Z,18.00
2019-05-17T12:13:33.241Z,18.20
2019-05-17T12:16:02.242Z,18.50
2019-05-17T12:18:29.702Z,18.80
2019-05-17T12:20:58.672Z,19.00
2019-05-17T12:23:26.021Z,19.10
2019-05-17T12:25:56.258Z,19.10
2019-05-17T12:28:26.872Z,19.20
2019-05-17T12:31:02.768Z,19.30
2019-05-17T12:33:35.559Z,19.20
2019-05-17T12:36:03.796Z,19.40
2019-05-17T12:38:34.159Z,19.40
2019-05-17T12:41:03.576Z,19.50
2019-05-17T12:43:52.568Z,19.30
2019-05-17T12:46:23.090Z,19.50
2019-05-17T12:48:54.011Z,19.70
2019-05-17T12:51:22.542Z,19.60
2019-05-17T12:53:51.503Z,20.00
2019-05-17T12:56:20.626Z,20.40
2019-05-17T12:58:49.782Z,20.50
2019-05-17T13:01:18.511Z,20.40
2019-05-17T13:03:46.233Z,20.50
2019-05-17T13:06:14.087Z,20.50
2019-05-17T13:08:47.839Z,20.30
2019-05-17T13:11:17.299Z,20.60
2019-05-17T13:13:46.952Z,20.90
2019-05-17T13:16:18.080Z,20.20
2019-05-17T13:18:45.684Z,20.20
2019-05-17T13:21:14.494Z,20.20
2019-05-17T13:23:43.074Z,19.90
2019-05-17T13:26:23.331Z,19.80
2019-05-17T13:28:52.748Z,20.10
2019-05-17T13:31:21.681Z,20.60
2019-05-17T13:33:50.410Z,20.70
2019-05-17T13:36:17.691Z,20.70
2019-05-17T13:38:49.412Z,21.00
2019-05-17T13:41:19.589Z,20.80
2019-05-17T13:43:46.210Z,21.00
2019-05-17T13:46:13.218Z,21.10
2019-05-17T13:48:47.983Z,21.10
2019-05-17T13:51:18.273Z,20.90
2019-05-17T13:53:45.081Z,20.80
2019-05-17T13:56:15.230Z,20.70
2019-05-17T13:58:44.131Z,20.80
2019-05-17T14:01:13.154Z,20.90
2019-05-17T14:03:40.458Z,21.20
2019-05-17T14:06:07.733Z,21.50
2019-05-17T14:08:36.482Z,21.30
2019-05-17T14:11:03.602Z,21.20
2019-05-17T14:13:37.161Z,21.10
2019-05-17T14:16:03.848Z,21.50
2019-05-17T14:18:34.458Z,21.30
2019-05-17T14:21:01.399Z,21.30
2019-05-17T14:23:28.802Z,21.60
2019-05-17T14:25:57.305Z,21.40
2019-05-17T14:28:24.387Z,21.70
2019-05-17T14:30:51.640Z,21.60
2019-05-17T14:33:23.405Z,21.30
2019-05-17T14:35:52.346Z,21.20
2019-05-17T14:38:22.574Z,20.70
2019-05-17T14:41:06.446Z,20.40
2019-05-17T14:43:23.190Z,20.50
2019-05-17T14:45:52.784Z,21.00
2019-05-17T14:48:21.747Z,21.50
2019-05-17T14:50:50.665Z,21.60
2019-05-17T14:53:22.260Z,21.50
2019-05-17T14:55:51.370Z,21.40
2019-05-17T14:58:24.465Z,21.30
2019-05-17T15:00:56.298Z,21.30
2019-05-17T15:03:28.532Z,21.00
2019-05-17T15:05:58.982Z,20.60
2019-05-17T15:08:26.333Z,20.30
2019-05-17T15:10:58.732Z,20.20
2019-05-17T15:13:25.822Z,20.40
2019-05-17T15:15:54.515Z,20.20
2019-05-17T15:18:21.320Z,20.30
2019-05-17T15:20:47.667Z,20.30
2019-05-17T15:23:13.877Z,20.20
2019-05-17T15:25:40.109Z,20.70
2019-05-17T15:28:06.346Z,20.60
2019-05-17T15:30:32.481Z,20.60
2019-05-17T15:32:58.697Z,20.70
2019-05-17T15:35:24.772Z,20.30
2019-05-17T15:37:51.079Z,20.00
2019-05-17T15:40:17.397Z,19.80
2019-05-17T15:42:44.837Z,19.70
2019-05-17T15:45:11.673Z,19.40
2019-05-17T15:47:40.687Z,19.40
2019-05-17T15:50:07.482Z,19.50
2019-05-17T15:52:33.664Z,19.50
2019-05-17T15:54:59.763Z,19.40
2019-05-17T15:57:25.893Z,19.30
2019-05-17T15:59:52.071Z,19.00
2019-05-17T16:02:18.198Z,19.00
2019-05-17T16:04:44.412Z,19.00
2019-05-17T16:07:10.570Z,19.00
2019-05-17T16:09:36.740Z,19.00
2019-05-17T16:12:02.923Z,19.00
2019-05-17T16:14:29.141Z,19.00
2019-05-17T16:16:55.275Z,19.10
2019-05-17T16:19:21.489Z,19.10
2019-05-17T16:21:47.604Z,19.10
2019-05-17T16:24:13.741Z,19.10
2019-05-17T16:26:39.921Z,19.10
2019-05-17T16:29:06.136Z,19.10
2019-05-17T16:31:32.368Z,18.90
2019-05-17T16:33:58.439Z,18.80
2019-05-17T16:36:24.584Z,18.70
2019-05-17T16:38:50.808Z,18.80
2019-05-17T16:41:16.965Z,18.70
2019-05-17T16:43:43.181Z,18.70
2019-05-17T16:46:09.387Z,18.70
2019-05-17T16:48:35.521Z,18.70
2019-05-17T16:51:01.663Z,18.60
2019-05-17T16:53:27.725Z,18.60
2019-05-17T16:55:53.927Z,18.50
2019-05-17T16:58:20.197Z,18.50
2019-05-17T17:00:46.912Z,18.50
2019-05-17T17:03:13.121Z,18.40
2019-05-17T17:05:39.318Z,18.50
2019-05-17T17:08:05.843Z,18.40
2019-05-17T17:10:32.229Z,18.30
2019-05-17T17:12:58.584Z,18.30
2019-05-17T17:15:24.790Z,18.20
2019-05-17T17:17:51.191Z,18.20
2019-05-17T17:20:17.943Z,18.10
2019-05-17T17:22:44.169Z,18.10
2019-05-17T17:25:10.897Z,18.10
2019-05-17T17:27:37.116Z,18.10
2019-05-17T17:30:05.854Z,18.00
2019-05-17T17:32:31.978Z,17.90
2019-05-17T17:34:58.068Z,17.90
2019-05-17T17:37:24.194Z,18.00
2019-05-17T17:39:53.239Z,17.90
2019-05-17T17:42:18.380Z,17.90
2019-05-17T17:44:44.507Z,17.90
2019-05-17T17:47:10.617Z,17.80
2019-05-17T17:49:36.899Z,17.70
2019-05-17T17:52:03.118Z,17.60
2019-05-17T17:54:29.578Z,17.60
2019-05-17T17:57:03.767Z,17.50
2019-05-17T17:59:29.998Z,17.40
2019-05-17T18:01:56.117Z,17.40
2019-05-17T18:04:22.205Z,17.30
2019-05-17T18:06:50.718Z,17.30
2019-05-17T18:09:18.426Z,17.20
2019-05-17T18:11:47.783Z,17.10
2019-05-17T18:14:14.947Z,17.00
2019-05-17T18:16:41.893Z,17.00
2019-05-17T18:19:10.566Z,17.00
2019-05-17T18:21:38.558Z,17.00
2019-05-17T18:24:05.931Z,16.90
2019-05-17T18:26:33.045Z,16.80
2019-05-17T18:29:03.614Z,16.70
2019-05-17T18:31:33.496Z,16.70
2019-05-17T18:34:00.350Z,16.60
2019-05-17T18:36:32.141Z,16.50
2019-05-17T18:39:07.083Z,16.50
2019-05-17T18:41:38.758Z,16.40
2019-05-17T18:44:06.222Z,16.30
2019-05-17T18:46:39.651Z,16.30
2019-05-17T18:49:08.492Z,16.30
2019-05-17T18:51:35.620Z,16.20
2019-05-17T18:54:03.866Z,16.20
2019-05-17T18:56:30.819Z,16.10
2019-05-17T18:58:58.258Z,16.10
2019-05-17T19:01:25.106Z,16.10
2019-05-17T19:03:52.232Z,16.00
2019-05-17T19:06:19.401Z,15.90
2019-05-17T19:08:49.715Z,15.90
2019-05-17T19:11:20.615Z,15.80
2019-05-17T19:13:50.455Z,15.80
2019-05-17T19:16:19.472Z,15.70
2019-05-17T19:18:48.076Z,15.60
2019-05-17T19:21:15.327Z,15.50
2019-05-17T19:23:45.143Z,15.50
2019-05-17T19:26:15.927Z,15.40
2019-05-17T19:28:53.362Z,15.40
2019-05-17T19:31:23.297Z,15.30
2019-05-17T19:33:50.282Z,15.20
2019-05-17T19:36:18.822Z,15.20
2019-05-17T19:38:45.819Z,15.10
2019-05-17T19:41:14.817Z,15.10
2019-05-17T19:43:44.715Z,15.10
2019-05-17T19:46:11.615Z,14.90
2019-05-17T19:48:40.370Z,14.90
2019-05-17T19:51:07.326Z,14.80
2019-05-17T19:53:36.837Z,14.70
2019-05-17T19:56:03.932Z,14.70
2019-05-17T19:58:31.227Z,14.60
2019-05-17T20:01:01.686Z,14.60
2019-05-17T20:03:31.117Z,14.60
2019-05-17T20:05:58.448Z,14.50
2019-05-17T20:08:27.000Z,14.40
2019-05-17T20:10:56.480Z,14.40
2019-05-17T20:13:29.685Z,14.40
2019-05-17T20:15:56.624Z,14.30
2019-05-17T20:18:31.902Z,14.30
2019-05-17T20:20:59.261Z,14.30
2019-05-17T20:23:26.626Z,14.30
2019-05-17T20:25:55.765Z,14.30
2019-05-17T20:28:24.654Z,14.20
2019-05-17T20:30:52.528Z,14.20
2019-05-17T20:33:25.265Z,14.10
2019-05-17T20:35:52.133Z,14.10
2019-05-17T20:38:19.134Z,14.00
2019-05-17T20:40:48.178Z,14.00
2019-05-17T20:43:17.014Z,14.00
2019-05-17T20:45:48.496Z,14.00
2019-05-17T20:48:25.940Z,14.00
2019-05-17T20:50:53.885Z,13.90
2019-05-17T20:53:20.981Z,13.90
2019-05-17T20:55:48.203Z,13.80
2019-05-17T20:58:14.359Z,13.80
2019-05-17T21:00:40.600Z,13.80
2019-05-17T21:03:06.768Z,13.80
2019-05-17T21:05:32.936Z,13.70
2019-05-17T21:07:59.109Z,13.70
2019-05-17T21:10:25.325Z,13.70
2019-05-17T21:12:51.462Z,13.70
2019-05-17T21:15:17.747Z,13.70
2019-05-17T21:17:43.987Z,13.70
2019-05-17T21:20:10.701Z,13.70
2019-05-17T21:22:36.825Z,13.60
2019-05-17T21:25:04.049Z,13.60
2019-05-17T21:27:30.247Z,13.60
2019-05-17T21:29:56.321Z,13.60
2019-05-17T21:32:22.510Z,13.60
2019-05-17T21:34:48.635Z,13.50
2019-05-17T21:37:14.761Z,13.50
2019-05-17T21:39:42.092Z,13.50
2019-05-17T21:42:08.582Z,13.40
2019-05-17T21:44:34.655Z,13.30
2019-05-17T21:47:04.622Z,13.30
2019-05-17T21:49:28.855Z,13.30
2019-05-17T21:51:54.965Z,13.30
2019-05-17T21:54:21.049Z,13.20
2019-05-17T21:56:47.175Z,13.20
2019-05-17T21:59:13.456Z,13.20
2019-05-17T22:01:39.552Z,13.20
2019-05-17T22:04:05.747Z,13.30
2019-05-17T22:06:31.856Z,13.20
2019-05-17T22:08:58.085Z,13.20
2019-05-17T22:11:24.215Z,13.10
2019-05-17T22:13:50.425Z,13.10
2019-05-17T22:16:19.905Z,13.10
2019-05-17T22:18:44.750Z,13.00
2019-05-17T22:21:10.866Z,12.90
2019-05-17T22:23:36.960Z,12.80
2019-05-17T22:26:03.359Z,12.80
2019-05-17T22:28:29.656Z,12.80
2019-05-17T22:30:55.863Z,12.80
2019-05-17T22:33:22.099Z,12.80
2019-05-17T22:35:48.211Z,12.80
2019-05-17T22:38:14.885Z,12.70
2019-05-17T22:40:41.011Z,12.70
2019-05-17T22:43:07.136Z,12.60
2019-05-17T22:45:33.333Z,12.50
2019-05-17T22:47:59.413Z,12.40
2019-05-17T22:50:25.538Z,12.30
2019-05-17T22:52:51.767Z,12.20
2019-05-17T22:55:17.936Z,12.30
2019-05-17T22:57:44.061Z,12.20
2019-05-17T23:00:10.727Z,12.20
2019-05-17T23:02:36.910Z,12.20
2019-05-17T23:05:03.934Z,12.20
2019-05-17T23:07:30.063Z,12.20
2019-05-17T23:09:56.154Z,12.10
2019-05-17T23:12:22.533Z,12.10
2019-05-17T23:14:48.718Z,12.10
2019-05-17T23:17:14.820Z,12.20
2019-05-17T23:19:41.017Z,12.20
2019-05-17T23:22:07.095Z,12.10
2019-05-17T23:24:33.242Z,12.10
2019-05-17T23:26:59.357Z,12.10
2019-05-17T23:29:25.635Z,12.20
2019-05-17T23:31:51.830Z,12.20
2019-05-17T23:34:17.907Z,12.10
2019-05-17T23:36:44.014Z,12.10
2019-05-17T23:39:10.127Z,12.10
2019-05-17T23:41:36.214Z,12.10
2019-05-17T23:44:02.538Z,12.00
2019-05-17T23:46:28.962Z,11.90
2019-05-17T23:48:55.053Z,11.90
2019-05-17T23:51:21.280Z,12.00
2019-05-17T23:53:47.456Z,11.80
2019-05-17T23:56:13.559Z,11.80
2019-05-17T23:58:39.775Z,11.80
